createdAt,value
2023-04-13T00:00:08.994Z,15.60
2023-04-13T00:02:39.301Z,16.83
2023-04-13T00:05:10.699Z,18.92
2023-04-13T00:07:41.078Z,17.58
2023-04-13T00:10:09.881Z,16.75
2023-04-13T00:12:38.047Z,16.20
2023-04-13T00:15:05.808Z,14.07
2023-04-13T00:17:33.620Z,18.00
2023-04-13T00:20:00.500Z,16.38
2023-04-13T00:22:30.541Z,16.20
2023-04-13T00:24:57.720Z,16.77
2023-04-13T00:27:27.622Z,15.35
2023-04-13T00:29:56.376Z,14.98
2023-04-13T00:32:24.096Z,14.52
2023-04-13T00:34:50.711Z,17.30
2023-04-13T00:37:18.725Z,16.25
2023-04-13T00:39:48.140Z,18.10
2023-04-13T00:42:15.350Z,12.95
2023-04-13T00:44:42.016Z,16.50
2023-04-13T00:47:08.922Z,13.50
2023-04-13T00:49:35.986Z,10.32
2023-04-13T00:52:03.114Z,13.35
2023-04-13T00:54:30.000Z,13.98
2023-04-13T00:56:59.521Z,10.30
2023-04-13T00:59:30.245Z,9.48
2023-04-13T01:01:56.978Z,8.30
2023-04-13T01:04:25.598Z,8.90
2023-04-13T01:07:01.265Z,7.00
2023-04-13T01:09:43.929Z,9.20
2023-04-13T01:12:19.774Z,7.28
2023-04-13T01:14:57.305Z,10.10
2023-04-13T01:17:28.835Z,8.45
2023-04-13T01:20:01.538Z,5.50
2023-04-13T01:22:31.221Z,6.20
2023-04-13T01:25:38.015Z,4.68
2023-04-13T01:28:07.475Z,5.65
2023-04-13T01:30:35.168Z,4.13
2023-04-13T01:33:02.823Z,10.02
2023-04-13T01:35:30.110Z,4.90
2023-04-13T01:37:59.594Z,5.55
2023-04-13T01:40:30.620Z,3.85
2023-04-13T01:42:58.016Z,3.58
2023-04-13T01:45:27.141Z,4.95
2023-04-13T01:48:11.861Z,2.15
2023-04-13T01:50:41.466Z,2.47
2023-04-13T01:53:12.305Z,1.77
2023-04-13T01:55:42.205Z,2.95
2023-04-13T01:58:13.214Z,3.40
2023-04-13T02:00:40.444Z,2.53
2023-04-13T02:03:08.822Z,2.15
2023-04-13T02:08:08.171Z,5.00
2023-04-13T02:10:36.324Z,2.92
2023-04-13T02:13:04.200Z,3.50
2023-04-13T02:15:39.222Z,3.35
2023-04-13T02:18:06.603Z,4.32
2023-04-13T02:20:40.472Z,2.40
2023-04-13T02:23:08.871Z,3.38
2023-04-13T02:28:02.448Z,2.83
2023-04-13T02:30:29.432Z,3.17
2023-04-13T02:32:56.215Z,3.15
2023-04-13T02:35:22.829Z,4.90
2023-04-13T02:37:49.434Z,2.25
2023-04-13T02:40:16.052Z,3.10
2023-04-13T02:42:42.949Z,2.40
2023-04-13T02:45:14.573Z,2.47
2023-04-13T02:47:41.314Z,2.88
2023-04-13T02:50:08.614Z,3.03
2023-04-13T02:52:35.353Z,1.58
2023-04-13T02:55:02.003Z,3.25
2023-04-13T02:57:28.580Z,4.10
2023-04-13T02:59:55.140Z,3.67
2023-04-13T03:02:23.387Z,3.42
2023-04-13T03:04:51.183Z,2.50
2023-04-13T03:07:18.748Z,4.68
2023-04-13T03:09:45.713Z,3.57
2023-04-13T03:12:12.285Z,4.70
2023-04-13T03:14:38.864Z,2.33
2023-04-13T03:17:07.506Z,4.93
2023-04-13T03:19:36.050Z,3.80
2023-04-13T03:24:29.148Z,4.68
2023-04-13T03:26:57.096Z,2.63
2023-04-13T03:29:24.563Z,3.00
2023-04-13T03:31:51.532Z,3.90
2023-04-13T03:34:18.694Z,4.47
2023-04-13T03:36:45.865Z,5.38
2023-04-13T03:39:12.532Z,2.90
2023-04-13T03:41:39.129Z,3.67
2023-04-13T03:44:07.415Z,4.18
2023-04-13T03:46:37.545Z,5.40
2023-04-13T03:49:09.751Z,5.35
2023-04-13T03:51:37.032Z,4.32
2023-04-13T03:54:04.354Z,4.28
2023-04-13T03:56:31.096Z,6.15
2023-04-13T03:58:57.714Z,6.22
2023-04-13T04:01:24.282Z,3.47
2023-04-13T04:03:51.057Z,3.30
2023-04-13T04:06:17.679Z,3.17
2023-04-13T04:08:45.501Z,2.53
2023-04-13T04:11:12.070Z,3.03
2023-04-13T04:13:38.665Z,2.45
2023-04-13T04:16:07.279Z,2.40
2023-04-13T04:18:33.891Z,5.55
2023-04-13T04:21:02.911Z,3.47
2023-04-13T04:23:30.134Z,4.88
2023-04-13T04:25:59.886Z,2.85
2023-04-13T04:28:26.515Z,2.10
2023-04-13T04:30:55.945Z,5.72
2023-04-13T04:33:22.926Z,5.15
2023-04-13T04:35:51.514Z,6.60
2023-04-13T04:38:18.470Z,8.18
2023-04-13T04:40:45.606Z,3.85
2023-04-13T04:43:16.053Z,2.67
2023-04-13T04:45:47.041Z,1.98
2023-04-13T04:48:14.905Z,4.70
2023-04-13T04:50:44.856Z,3.60
2023-04-13T04:53:12.272Z,1.88
2023-04-13T04:55:39.439Z,5.47
2023-04-13T04:58:06.644Z,3.03
2023-04-13T05:00:33.223Z,4.03
2023-04-13T05:03:01.108Z,1.77
2023-04-13T05:05:30.784Z,1.85
2023-04-13T05:07:57.695Z,3.15
2023-04-13T05:10:24.764Z,2.83
2023-04-13T05:12:51.306Z,2.20
2023-04-13T05:15:17.894Z,3.45
2023-04-13T05:17:46.762Z,3.13
2023-04-13T05:20:17.283Z,2.17
2023-04-13T05:22:43.884Z,1.90
2023-04-13T05:25:10.781Z,4.38
2023-04-13T05:27:37.348Z,2.22
2023-04-13T05:30:05.363Z,5.80
2023-04-13T05:32:35.210Z,4.35
2023-04-13T05:35:02.244Z,1.88
2023-04-13T05:37:34.556Z,7.35
2023-04-13T05:40:01.165Z,2.17
2023-04-13T05:42:27.749Z,1.48
2023-04-13T05:44:54.368Z,3.67
2023-04-13T05:47:22.499Z,1.75
2023-04-13T05:49:49.170Z,3.78
2023-04-13T05:52:15.818Z,5.65
2023-04-13T05:54:42.480Z,4.57
2023-04-13T05:57:09.054Z,4.20
2023-04-13T05:59:35.690Z,4.20
2023-04-13T06:02:03.241Z,4.65
2023-04-13T06:04:31.205Z,2.90
2023-04-13T06:06:58.077Z,2.35
2023-04-13T06:09:24.686Z,3.15
2023-04-13T06:11:51.248Z,5.72
2023-04-13T06:14:18.365Z,4.28
2023-04-13T06:16:45.020Z,4.45
2023-04-13T06:19:12.521Z,3.42
2023-04-13T06:21:39.071Z,4.45
2023-04-13T06:24:06.116Z,3.25
2023-04-13T06:26:33.703Z,5.03
2023-04-13T06:29:00.723Z,3.90
2023-04-13T06:31:28.174Z,4.40
2023-04-13T06:33:55.445Z,2.88
2023-04-13T06:36:22.152Z,2.92
2023-04-13T06:38:48.754Z,2.22
2023-04-13T06:41:15.573Z,2.08
2023-04-13T06:43:42.289Z,5.88
2023-04-13T06:46:08.849Z,2.90
2023-04-13T06:48:35.516Z,2.47
2023-04-13T06:51:02.175Z,2.25
2023-04-13T06:53:28.785Z,2.55
2023-04-13T06:55:55.606Z,2.95
2023-04-13T06:58:23.364Z,2.22
2023-04-13T07:00:50.085Z,3.20
2023-04-13T07:03:16.779Z,3.75
2023-04-13T07:05:45.113Z,4.78
2023-04-13T07:08:12.272Z,2.15
2023-04-13T07:10:40.911Z,2.00
2023-04-13T07:13:07.615Z,1.75
2023-04-13T07:15:37.765Z,2.63
2023-04-13T07:18:04.825Z,5.53
2023-04-13T07:20:31.444Z,2.55
2023-04-13T07:22:58.229Z,4.68
2023-04-13T07:25:24.851Z,2.88
2023-04-13T07:27:51.421Z,3.95
2023-04-13T07:30:18.069Z,4.13
2023-04-13T07:32:44.758Z,3.95
2023-04-13T07:35:11.404Z,4.03
2023-04-13T07:37:38.007Z,3.83
2023-04-13T07:40:05.394Z,3.63
2023-04-13T07:42:32.012Z,5.68
2023-04-13T07:44:58.569Z,5.40
2023-04-13T07:47:25.441Z,4.70
2023-04-13T07:49:52.043Z,5.95
2023-04-13T07:52:19.881Z,6.68
2023-04-13T07:54:46.531Z,5.97
2023-04-13T07:57:13.083Z,5.97
2023-04-13T07:59:39.650Z,7.95
2023-04-13T08:02:07.071Z,6.72
2023-04-13T08:04:34.184Z,5.53
2023-04-13T08:07:04.642Z,8.05
2023-04-13T08:09:40.789Z,8.55
2023-04-13T08:12:08.508Z,4.72
2023-04-13T08:14:35.590Z,6.97
2023-04-13T08:17:06.641Z,7.35
2023-04-13T08:19:34.053Z,8.77
2023-04-13T08:22:00.721Z,8.23
2023-04-13T08:24:27.526Z,5.78
2023-04-13T08:26:55.208Z,4.68
2023-04-13T08:29:22.544Z,6.97
2023-04-13T08:31:49.338Z,6.68
2023-04-13T08:34:19.049Z,5.68
2023-04-13T08:36:48.493Z,3.80
2023-04-13T08:39:15.083Z,4.07
2023-04-13T08:41:47.092Z,5.18
2023-04-13T08:44:14.593Z,7.05
2023-04-13T08:46:43.916Z,4.78
2023-04-13T08:49:11.875Z,5.57
2023-04-13T08:51:39.145Z,5.70
2023-04-13T08:54:07.311Z,4.47
2023-04-13T08:56:44.661Z,3.83
2023-04-13T08:59:15.332Z,4.22
2023-04-13T09:01:44.430Z,3.97
2023-04-13T09:04:13.466Z,2.72
2023-04-13T09:06:43.618Z,3.28
2023-04-13T09:09:15.857Z,6.40
2023-04-13T09:11:43.486Z,2.83
2023-04-13T09:14:10.501Z,3.40
2023-04-13T09:16:41.148Z,2.88
2023-04-13T09:19:08.665Z,4.75
2023-04-13T09:21:40.509Z,4.65
2023-04-13T09:24:07.868Z,2.92
2023-04-13T09:26:47.925Z,5.07
2023-04-13T09:29:19.339Z,3.63
2023-04-13T09:31:47.462Z,3.45
2023-04-13T09:34:15.107Z,3.38
2023-04-13T09:36:53.590Z,4.23
2023-04-13T09:39:28.364Z,4.82
2023-04-13T09:41:55.429Z,4.15
2023-04-13T09:44:28.442Z,4.50
2023-04-13T09:47:02.807Z,4.75
2023-04-13T09:49:39.421Z,6.32
2023-04-13T09:52:08.279Z,3.97
2023-04-13T09:54:35.415Z,4.90
2023-04-13T09:57:04.810Z,4.43
2023-04-13T09:59:32.695Z,2.55
2023-04-13T10:01:59.600Z,4.47
2023-04-13T10:04:26.465Z,5.13
2023-04-13T10:06:53.507Z,3.65
2023-04-13T10:09:21.257Z,2.38
2023-04-13T10:11:51.459Z,2.50
2023-04-13T10:14:31.752Z,3.20
2023-04-13T10:17:20.243Z,2.58
2023-04-13T10:19:51.814Z,3.38
2023-04-13T10:22:20.718Z,4.72
2023-04-13T10:24:47.317Z,2.78
2023-04-13T10:27:27.190Z,2.70
2023-04-13T10:29:55.113Z,4.47
2023-04-13T10:32:28.075Z,2.92
2023-04-13T10:34:55.311Z,3.00
2023-04-13T10:37:28.716Z,5.22
2023-04-13T10:40:06.324Z,3.63
2023-04-13T10:42:51.922Z,3.67
2023-04-13T10:45:32.203Z,3.92
2023-04-13T10:47:58.943Z,5.82
2023-04-13T10:50:27.756Z,4.07
2023-04-13T10:52:58.474Z,7.05
2023-04-13T10:55:28.053Z,4.78
2023-04-13T10:57:56.392Z,3.15
2023-04-13T11:00:42.468Z,5.45
2023-04-13T11:03:15.612Z,3.83
2023-04-13T11:05:43.459Z,4.07
2023-04-13T11:08:10.215Z,5.28
2023-04-13T11:10:36.784Z,8.10
2023-04-13T11:13:03.406Z,5.00
2023-04-13T11:15:30.871Z,5.03
2023-04-13T11:17:59.302Z,4.93
2023-04-13T11:20:32.368Z,4.05
2023-04-13T11:22:59.963Z,4.28
2023-04-13T11:25:26.925Z,6.40
2023-04-13T11:28:01.515Z,4.80
2023-04-13T11:30:28.305Z,5.65
2023-04-13T11:32:58.442Z,6.18
2023-04-13T11:35:25.273Z,4.53
2023-04-13T11:37:56.063Z,6.63
2023-04-13T11:40:25.677Z,5.85
2023-04-13T11:42:54.167Z,7.90
2023-04-13T11:45:22.972Z,7.20
2023-04-13T11:47:50.625Z,4.28
2023-04-13T11:50:18.053Z,4.53
2023-04-13T11:52:46.667Z,8.23
2023-04-13T11:55:23.472Z,3.72
2023-04-13T11:57:52.354Z,3.85
2023-04-13T12:03:01.902Z,4.93
2023-04-13T12:07:59.482Z,4.30
2023-04-13T12:10:39.466Z,5.28
2023-04-13T12:16:02.378Z,3.67
2023-04-13T12:18:37.258Z,5.32
2023-04-13T12:21:05.854Z,5.30
2023-04-13T12:23:32.837Z,5.28
2023-04-13T12:26:01.033Z,4.13
2023-04-13T12:28:34.754Z,4.18
2023-04-13T12:31:12.586Z,7.97
2023-04-13T12:33:39.965Z,5.85
2023-04-13T12:36:07.065Z,4.80
2023-04-13T12:38:34.607Z,6.43
2023-04-13T12:41:02.064Z,8.07
2023-04-13T12:43:29.009Z,10.45
2023-04-13T12:45:56.101Z,7.80
2023-04-13T12:48:22.836Z,8.27
2023-04-13T12:50:49.615Z,6.93
2023-04-13T12:53:16.453Z,3.72
2023-04-13T12:55:43.569Z,3.15
2023-04-13T12:58:10.922Z,5.80
2023-04-13T13:00:37.831Z,3.80
2023-04-13T13:03:14.049Z,4.47
2023-04-13T13:05:41.985Z,1.95
2023-04-13T13:08:09.213Z,3.50
2023-04-13T13:10:37.060Z,4.57
2023-04-13T13:13:04.282Z,4.80
2023-04-13T13:15:31.848Z,5.15
2023-04-13T13:18:01.004Z,4.10
2023-04-13T13:20:27.663Z,4.57
2023-04-13T13:22:54.366Z,7.50
2023-04-13T13:25:21.166Z,6.28
2023-04-13T13:30:18.259Z,5.72
2023-04-13T13:32:45.109Z,8.82
2023-04-13T13:35:11.756Z,7.43
2023-04-13T13:37:39.742Z,6.32
2023-04-13T13:40:15.788Z,6.65
2023-04-13T13:45:11.923Z,8.00
2023-04-13T13:47:38.609Z,5.10
2023-04-13T13:50:05.848Z,6.15
2023-04-13T13:52:33.780Z,5.03
2023-04-13T13:55:00.368Z,7.35
2023-04-13T13:57:27.198Z,9.20
2023-04-13T13:59:53.762Z,8.15
2023-04-13T14:02:20.858Z,5.07
2023-04-13T14:04:47.512Z,5.18
2023-04-13T14:07:14.510Z,5.82
2023-04-13T14:09:41.149Z,6.20
2023-04-13T14:12:07.865Z,4.45
2023-04-13T14:14:34.444Z,8.10
2023-04-13T14:17:01.111Z,3.95
2023-04-13T14:19:27.668Z,4.93
2023-04-13T14:21:56.551Z,3.67
2023-04-13T14:24:25.802Z,3.97
2023-04-13T14:26:52.984Z,4.55
2023-04-13T14:29:19.607Z,7.53
2023-04-13T14:31:46.197Z,4.93
2023-04-13T14:34:12.782Z,3.78
2023-04-13T14:36:39.388Z,6.25
2023-04-13T14:39:06.381Z,6.90
2023-04-13T14:41:32.981Z,7.53
2023-04-13T14:43:59.552Z,7.32
2023-04-13T14:46:27.953Z,5.97
2023-04-13T14:51:21.572Z,6.00
2023-04-13T14:53:48.232Z,7.35
2023-04-13T14:56:15.757Z,3.55
2023-04-13T14:58:42.410Z,5.55
2023-04-13T15:01:19.029Z,4.35
2023-04-13T15:03:46.956Z,3.58
2023-04-13T15:06:14.364Z,7.15
2023-04-13T15:08:41.141Z,5.50
2023-04-13T15:11:08.781Z,7.05
2023-04-13T15:13:36.912Z,8.20
2023-04-13T15:16:04.030Z,8.43
2023-04-13T15:18:30.669Z,6.57
2023-04-13T15:21:01.836Z,9.30
2023-04-13T15:23:28.403Z,6.82
2023-04-13T15:25:54.973Z,7.93
2023-04-13T15:28:21.613Z,9.25
2023-04-13T15:30:48.234Z,5.60
2023-04-13T15:33:14.838Z,7.57
2023-04-13T15:35:41.484Z,5.20
2023-04-13T15:38:09.382Z,7.38
2023-04-13T15:40:37.956Z,8.20
2023-04-13T15:45:32.778Z,6.57
2023-04-13T15:47:59.516Z,8.45
2023-04-13T15:50:26.177Z,6.47
2023-04-13T15:52:52.812Z,8.80
2023-04-13T15:55:20.300Z,7.57
2023-04-13T15:57:46.877Z,6.65
2023-04-13T16:00:14.833Z,7.43
2023-04-13T16:02:41.687Z,5.97
2023-04-13T16:05:08.777Z,8.57
2023-04-13T16:07:35.617Z,5.65
2023-04-13T16:10:02.828Z,5.25
2023-04-13T16:12:32.389Z,3.50
2023-04-13T16:15:03.405Z,7.78
2023-04-13T16:17:31.342Z,10.05
2023-04-13T16:20:05.554Z,7.82
2023-04-13T16:22:34.939Z,5.88
2023-04-13T16:25:02.282Z,4.25
2023-04-13T16:27:28.862Z,6.40
2023-04-13T16:29:55.497Z,4.10
2023-04-13T16:32:22.198Z,6.13
2023-04-13T16:34:48.826Z,3.97
2023-04-13T16:37:15.484Z,6.57
2023-04-13T16:39:44.338Z,5.65
2023-04-13T16:42:12.243Z,4.78
2023-04-13T16:44:38.857Z,4.63
2023-04-13T16:47:05.595Z,5.97
2023-04-13T16:49:33.598Z,4.03
2023-04-13T16:52:00.754Z,6.82
2023-04-13T16:54:27.597Z,4.10
2023-04-13T16:56:54.281Z,4.82
2023-04-13T16:59:20.974Z,6.18
2023-04-13T17:01:47.656Z,5.85
2023-04-13T17:04:14.373Z,5.63
2023-04-13T17:06:41.070Z,5.57
2023-04-13T17:09:08.274Z,6.07
2023-04-13T17:11:34.927Z,6.95
2023-04-13T17:14:01.709Z,4.85
2023-04-13T17:16:29.519Z,4.47
2023-04-13T17:18:56.690Z,4.65
2023-04-13T17:21:23.463Z,3.80
2023-04-13T17:23:50.051Z,4.47
2023-04-13T17:26:16.726Z,7.20
2023-04-13T17:28:43.399Z,3.30
2023-04-13T17:31:10.582Z,5.25
2023-04-13T17:33:37.179Z,7.15
2023-04-13T17:36:03.928Z,5.55
2023-04-13T17:38:30.538Z,3.58
2023-04-13T17:40:57.137Z,3.60
2023-04-13T17:43:23.729Z,3.63
2023-04-13T17:45:50.351Z,3.47
2023-04-13T17:48:16.968Z,5.13
2023-04-13T17:50:43.821Z,6.53
2023-04-13T17:53:10.393Z,6.25
2023-04-13T17:55:37.544Z,5.47
2023-04-13T17:58:04.482Z,7.70
2023-04-13T18:00:31.077Z,3.38
2023-04-13T18:02:58.312Z,5.32
2023-04-13T18:05:25.817Z,4.82
2023-04-13T18:07:52.366Z,3.80
2023-04-13T18:10:19.009Z,4.88
2023-04-13T18:12:46.026Z,6.35
2023-04-13T18:15:12.635Z,6.45
2023-04-13T18:17:39.271Z,4.70
2023-04-13T18:20:06.561Z,5.18
2023-04-13T18:22:33.229Z,6.32
2023-04-13T18:24:59.828Z,7.47
2023-04-13T18:27:27.729Z,7.60
2023-04-13T18:29:55.221Z,5.15
2023-04-13T18:32:22.825Z,7.53
2023-04-13T18:34:49.997Z,4.10
2023-04-13T18:37:16.792Z,5.18
2023-04-13T18:39:43.480Z,5.25
2023-04-13T18:42:10.095Z,6.47
2023-04-13T18:44:36.812Z,6.53
2023-04-13T18:47:03.625Z,4.65
2023-04-13T18:49:30.620Z,4.45
2023-04-13T18:51:57.237Z,8.02
2023-04-13T18:54:23.825Z,5.85
2023-04-13T18:56:50.396Z,6.85
2023-04-13T18:59:17.554Z,4.75
2023-04-13T19:01:44.233Z,5.35
2023-04-13T19:04:11.118Z,7.45
2023-04-13T19:06:38.677Z,5.93
2023-04-13T19:09:05.385Z,4.72
2023-04-13T19:11:45.792Z,4.93
2023-04-13T19:14:12.398Z,5.35
2023-04-13T19:16:39.073Z,8.57
2023-04-13T19:19:05.679Z,6.75
2023-04-13T19:21:32.232Z,6.20
2023-04-13T19:23:58.993Z,6.30
2023-04-13T19:26:25.833Z,4.07
2023-04-13T19:28:55.073Z,3.95
2023-04-13T19:31:22.816Z,5.40
2023-04-13T19:33:51.470Z,7.07
2023-04-13T19:38:45.304Z,3.63
2023-04-13T19:41:12.206Z,5.30
2023-04-13T19:43:38.783Z,12.70
2023-04-13T19:46:05.433Z,21.52
2023-04-13T19:48:32.225Z,16.70
2023-04-13T19:50:58.859Z,9.73
2023-04-13T19:53:25.734Z,6.88
2023-04-13T19:55:52.297Z,8.38
2023-04-13T19:58:19.481Z,4.65
2023-04-13T20:00:47.334Z,8.68
2023-04-13T20:03:14.548Z,5.95
2023-04-13T20:05:41.362Z,7.93
2023-04-13T20:08:07.993Z,6.32
2023-04-13T20:10:34.703Z,3.95
2023-04-13T20:13:01.469Z,13.43
2023-04-13T20:15:30.980Z,6.25
2023-04-13T20:17:57.761Z,5.97
2023-04-13T20:20:24.484Z,6.85
2023-04-13T20:22:51.076Z,8.07
2023-04-13T20:25:17.765Z,9.48
2023-04-13T20:27:45.687Z,7.78
2023-04-13T20:30:12.850Z,7.50
2023-04-13T20:32:39.510Z,9.45
2023-04-13T20:35:06.603Z,9.32
2023-04-13T20:37:33.242Z,9.75
2023-04-13T20:39:59.837Z,10.98
2023-04-13T20:42:26.680Z,10.02
2023-04-13T20:44:57.524Z,7.05
2023-04-13T20:47:29.114Z,6.22
2023-04-13T20:49:57.602Z,7.35
2023-04-13T20:54:51.665Z,6.78
2023-04-13T20:57:19.943Z,4.93
2023-04-13T20:59:47.462Z,5.10
2023-04-13T21:02:15.644Z,5.03
2023-04-13T21:04:42.423Z,4.30
2023-04-13T21:07:11.217Z,5.35
2023-04-13T21:09:38.296Z,4.95
2023-04-13T21:12:05.017Z,4.18
2023-04-13T21:14:32.248Z,8.30
2023-04-13T21:16:59.205Z,10.93
2023-04-13T21:19:25.820Z,9.48
2023-04-13T21:21:53.652Z,9.00
2023-04-13T21:24:20.262Z,11.45
2023-04-13T21:26:46.857Z,9.20
2023-04-13T21:29:14.057Z,8.35
2023-04-13T21:31:40.731Z,8.85
2023-04-13T21:34:07.302Z,12.32
2023-04-13T21:39:04.237Z,9.70
2023-04-13T21:41:30.912Z,12.10
2023-04-13T21:43:57.625Z,13.10
2023-04-13T21:46:24.925Z,14.02
2023-04-13T21:48:52.145Z,14.15
2023-04-13T21:51:18.728Z,9.55
2023-04-13T21:53:45.363Z,11.02
2023-04-13T21:56:11.908Z,8.55
2023-04-13T21:58:42.993Z,8.50
2023-04-13T22:01:10.897Z,7.47
2023-04-13T22:03:38.613Z,5.60
2023-04-13T22:06:07.579Z,7.72
2023-04-13T22:08:34.366Z,5.03
2023-04-13T22:11:01.507Z,6.80
2023-04-13T22:13:28.130Z,5.55
2023-04-13T22:15:54.775Z,6.30
2023-04-13T22:18:21.662Z,9.55
2023-04-13T22:20:49.070Z,5.90
2023-04-13T22:23:15.868Z,12.15
2023-04-13T22:25:42.501Z,7.07
2023-04-13T22:28:09.164Z,4.90
2023-04-13T22:30:36.347Z,3.85
2023-04-13T22:33:03.021Z,4.57
2023-04-13T22:35:29.622Z,2.78
2023-04-13T22:37:56.185Z,3.95
2023-04-13T22:40:22.783Z,5.35
2023-04-13T22:42:49.329Z,5.28
2023-04-13T22:45:15.963Z,5.50
2023-04-13T22:47:42.582Z,2.20
2023-04-13T22:50:09.516Z,4.25
2023-04-13T22:52:36.265Z,5.07
2023-04-13T22:55:03.024Z,5.78
2023-04-13T22:57:29.643Z,4.80
2023-04-13T22:59:56.207Z,4.88
2023-04-13T23:02:22.857Z,6.80
2023-04-13T23:04:49.542Z,6.53
2023-04-13T23:07:16.330Z,5.57
2023-04-13T23:09:42.934Z,5.75
2023-04-13T23:12:09.643Z,3.60
2023-04-13T23:14:36.284Z,4.18
2023-04-13T23:17:02.863Z,4.93
2023-04-13T23:19:29.445Z,3.80
2023-04-13T23:21:56.404Z,7.72
2023-04-13T23:24:22.961Z,6.32
2023-04-13T23:26:49.494Z,5.22
2023-04-13T23:29:16.426Z,4.70
2023-04-13T23:31:43.062Z,7.20
2023-04-13T23:34:09.626Z,5.43
2023-04-13T23:36:36.289Z,9.18
2023-04-13T23:39:03.123Z,6.88
2023-04-13T23:41:29.734Z,8.50
2023-04-13T23:43:56.542Z,6.30
2023-04-13T23:46:24.092Z,8.18
2023-04-13T23:48:51.026Z,8.43
2023-04-13T23:51:17.602Z,8.13
2023-04-13T23:53:44.151Z,8.13
2023-04-13T23:56:10.771Z,6.80
2023-04-13T23:58:37.357Z,12.10
